createdAt,value
2018-12-23T00:00:03.020Z,100.00
2018-12-23T00:02:32.274Z,100.00
2018-12-23T00:05:01.025Z,100.00
2018-12-23T00:07:29.829Z,100.00
2018-12-23T00:09:58.715Z,100.00
2018-12-23T00:12:27.713Z,100.00
2018-12-23T00:14:56.438Z,100.00
2018-12-23T00:17:25.076Z,100.00
2018-12-23T00:19:54.087Z,100.00
2018-12-23T00:22:22.841Z,100.00
2018-12-23T00:24:51.509Z,100.00
2018-12-23T00:27:20.476Z,100.00
2018-12-23T00:29:49.554Z,100.00
2018-12-23T00:32:18.369Z,100.00
2018-12-23T00:34:47.772Z,100.00
2018-12-23T00:37:16.539Z,100.00
2018-12-23T00:39:45.552Z,100.00
2018-12-23T00:42:15.285Z,100.00
2018-12-23T00:44:44.091Z,100.00
2018-12-23T00:47:12.768Z,100.00
2018-12-23T00:49:42.044Z,100.00
2018-12-23T00:52:11.000Z,100.00
2018-12-23T00:54:39.820Z,100.00
2018-12-23T00:57:08.602Z,100.00
2018-12-23T00:59:37.350Z,100.00
2018-12-23T01:02:06.353Z,100.00
2018-12-23T01:04:35.067Z,100.00
2018-12-23T01:07:03.812Z,100.00
2018-12-23T01:09:32.636Z,100.00
2018-12-23T01:12:01.482Z,100.00
2018-12-23T01:14:30.246Z,100.00
2018-12-23T01:16:59.007Z,100.00
2018-12-23T01:19:28.105Z,100.00
2018-12-23T01:21:57.348Z,100.00
2018-12-23T01:24:26.433Z,100.00
2018-12-23T01:26:55.586Z,100.00
2018-12-23T01:29:24.498Z,100.00
2018-12-23T01:31:53.678Z,100.00
2018-12-23T01:34:22.670Z,100.00
2018-12-23T01:36:51.878Z,100.00
2018-12-23T01:39:20.808Z,100.00
2018-12-23T01:41:49.563Z,100.00
2018-12-23T01:44:18.616Z,100.00
2018-12-23T01:46:47.342Z,100.00
2018-12-23T01:49:16.041Z,100.00
2018-12-23T01:51:44.845Z,100.00
2018-12-23T01:54:13.883Z,100.00
2018-12-23T01:56:42.944Z,100.00
2018-12-23T01:59:11.759Z,100.00
2018-12-23T02:01:40.996Z,100.00
2018-12-23T02:04:11.096Z,100.00
2018-12-23T02:06:39.882Z,100.00
2018-12-23T02:09:08.651Z,100.00
2018-12-23T02:11:37.439Z,100.00
2018-12-23T02:14:06.198Z,100.00
2018-12-23T02:16:34.886Z,100.00
2018-12-23T02:19:03.935Z,100.00
2018-12-23T02:21:32.639Z,100.00
2018-12-23T02:24:01.715Z,100.00
2018-12-23T02:26:30.492Z,100.00
2018-12-23T02:28:59.157Z,100.00
2018-12-23T02:32:00.345Z,100.00
2018-12-23T02:34:30.277Z,100.00
2018-12-23T02:37:00.187Z,100.00
2018-12-23T02:39:30.318Z,100.00
2018-12-23T02:42:00.137Z,100.00
2018-12-23T02:44:30.033Z,99.61
2018-12-23T02:46:59.959Z,97.09
2018-12-23T02:49:29.781Z,94.18
2018-12-23T02:51:59.614Z,92.13
2018-12-23T03:10:16.669Z,86.47
2018-12-23T03:17:35.678Z,86.06
2018-12-23T03:32:13.394Z,83.33
2018-12-23T03:35:01.217Z,83.52
2018-12-23T03:37:39.151Z,82.57
2018-12-23T03:40:12.983Z,82.85
2018-12-23T03:54:27.015Z,82.93
2018-12-23T03:56:56.967Z,83.87
2018-12-23T03:59:28.207Z,84.73
2018-12-23T04:01:59.473Z,85.42
2018-12-23T04:04:53.173Z,85.68
2018-12-23T04:07:58.971Z,86.79
2018-12-23T04:10:30.331Z,87.19
2018-12-23T04:13:00.156Z,87.45
2018-12-23T04:15:30.164Z,87.62
2018-12-23T04:18:00.409Z,87.60
2018-12-23T04:20:30.244Z,88.26
2018-12-23T04:23:19.270Z,87.60
2018-12-23T04:25:49.160Z,87.52
2018-12-23T04:28:19.082Z,87.24
2018-12-23T04:30:57.758Z,86.44
2018-12-23T04:33:55.617Z,85.62
2018-12-23T04:36:33.804Z,84.84
2018-12-23T04:39:31.806Z,84.56
2018-12-23T04:42:04.043Z,83.14
2018-12-23T04:44:34.339Z,82.05
2018-12-23T04:47:04.291Z,82.26
2018-12-23T04:49:36.361Z,81.54
2018-12-23T04:52:08.719Z,81.47
2018-12-23T04:54:41.368Z,81.35
2018-12-23T04:57:13.032Z,81.44
2018-12-23T04:59:45.663Z,81.59
2018-12-23T05:02:17.782Z,81.95
2018-12-23T05:04:48.731Z,82.12
2018-12-23T05:07:43.074Z,81.26
2018-12-23T05:10:47.504Z,80.26
2018-12-23T05:14:20.749Z,80.27
2018-12-23T05:20:43.966Z,80.44
2018-12-23T05:27:42.955Z,80.32
2018-12-23T05:34:36.988Z,80.48
2018-12-23T05:41:07.191Z,80.72
2018-12-23T05:47:52.794Z,81.47
2018-12-23T05:50:22.605Z,82.05
2018-12-23T05:52:52.497Z,82.55
2018-12-23T05:55:27.089Z,83.05
2018-12-23T05:57:56.923Z,83.38
2018-12-23T06:00:26.741Z,83.69
2018-12-23T06:02:57.036Z,84.01
2018-12-23T06:05:26.960Z,84.02
2018-12-23T06:07:56.773Z,84.04
2018-12-23T06:10:27.059Z,84.40
2018-12-23T06:12:57.009Z,84.09
2018-12-23T06:15:26.935Z,84.51
2018-12-23T06:17:56.905Z,84.09
2018-12-23T06:20:27.677Z,83.99
2018-12-23T06:22:57.587Z,84.21
2018-12-23T06:25:27.827Z,84.14
2018-12-23T06:27:58.608Z,84.46
2018-12-23T06:30:40.667Z,84.89
2018-12-23T06:33:10.501Z,84.82
2018-12-23T06:35:40.310Z,85.11
2018-12-23T06:38:10.211Z,85.13
2018-12-23T06:40:40.408Z,84.91
2018-12-23T06:43:10.244Z,84.60
2018-12-23T06:45:40.056Z,84.21
2018-12-23T06:48:10.507Z,83.87
2018-12-23T06:50:40.411Z,83.34
2018-12-23T06:53:10.204Z,82.98
2018-12-23T06:55:40.735Z,82.62
2018-12-23T06:58:11.065Z,81.85
2018-12-23T07:00:40.988Z,81.44
2018-12-23T07:03:12.049Z,81.55
2018-12-23T07:05:41.969Z,81.41
2018-12-23T07:08:16.499Z,81.70
2018-12-23T07:10:46.317Z,81.41
2018-12-23T07:13:16.216Z,81.59
2018-12-23T07:15:46.185Z,80.96
2018-12-23T07:18:15.989Z,80.51
2018-12-23T07:20:46.930Z,80.75
2018-12-23T07:26:34.103Z,79.14
2018-12-23T07:29:04.468Z,78.43
2018-12-23T07:31:34.374Z,77.13
2018-12-23T07:34:04.951Z,76.66
2018-12-23T07:36:35.275Z,75.17
2018-12-23T07:39:09.544Z,75.04
2018-12-23T07:41:39.782Z,74.21
2018-12-23T15:54:10.249Z,64.96
2018-12-23T15:56:32.472Z,65.24
2018-12-23T15:59:08.230Z,64.54
2018-12-23T16:01:40.368Z,64.82
2018-12-23T16:04:10.305Z,65.58
2018-12-23T16:06:40.325Z,65.77
2018-12-23T16:09:12.134Z,65.80
2018-12-23T16:11:41.911Z,66.00
2018-12-23T16:14:11.976Z,66.80
2018-12-23T16:16:41.912Z,67.42
2018-12-23T16:19:12.110Z,67.31
2018-12-23T16:21:42.123Z,66.61
2018-12-23T16:24:12.041Z,66.20
2018-12-23T16:26:41.898Z,65.28
2018-12-23T16:29:11.889Z,65.63
2018-12-23T16:31:41.865Z,65.71
2018-12-23T16:34:12.036Z,65.80
2018-12-23T16:36:41.901Z,66.22
2018-12-23T16:39:12.135Z,66.32
2018-12-23T16:41:42.183Z,66.60
2018-12-23T16:44:12.032Z,66.63
2018-12-23T16:46:42.185Z,67.35
2018-12-23T16:49:12.160Z,67.95
2018-12-23T16:51:42.121Z,68.95
2018-12-23T16:54:11.989Z,69.60
2018-12-23T16:56:41.934Z,70.20
2018-12-23T16:59:11.914Z,70.74
2018-12-23T17:01:43.775Z,71.32
2018-12-23T17:04:13.771Z,71.91
2018-12-23T17:06:44.205Z,72.19
2018-12-23T17:09:14.179Z,72.39
2018-12-23T17:11:44.108Z,72.59
2018-12-23T17:14:14.112Z,73.14
2018-12-23T17:16:44.072Z,72.72
2018-12-23T17:19:13.978Z,73.07
2018-12-23T17:21:43.879Z,73.45
2018-12-23T17:24:14.202Z,73.61
2018-12-23T17:26:44.145Z,72.96
2018-12-23T17:29:13.991Z,72.50
2018-12-23T17:31:44.122Z,72.39
2018-12-23T17:34:14.505Z,71.90
2018-12-23T17:36:44.423Z,72.31
2018-12-23T17:39:14.348Z,72.73
2018-12-23T17:41:44.269Z,73.70
2018-12-23T17:44:14.229Z,74.08
2018-12-23T17:46:44.373Z,73.68
2018-12-23T17:49:17.316Z,72.67
2018-12-23T17:51:47.243Z,72.99
2018-12-23T17:54:17.601Z,73.51
2018-12-23T17:56:47.545Z,73.19
2018-12-23T17:59:17.386Z,73.65
2018-12-23T18:01:47.414Z,73.24
2018-12-23T18:04:17.373Z,72.68
2018-12-23T18:06:47.365Z,72.44
2018-12-23T18:09:17.594Z,71.98
2018-12-23T18:11:47.579Z,71.75
2018-12-23T18:14:17.499Z,71.57
2018-12-23T18:16:47.468Z,71.31
2018-12-23T18:19:17.451Z,71.44
2018-12-23T18:21:47.395Z,71.52
2018-12-23T18:24:17.638Z,71.52
2018-12-23T18:26:47.459Z,71.34
2018-12-23T18:29:17.496Z,70.59
2018-12-23T18:31:47.749Z,70.06
2018-12-23T18:34:17.675Z,69.59
2018-12-23T18:36:47.559Z,69.51
2018-12-23T18:39:17.618Z,69.06
2018-12-23T18:41:47.548Z,68.89
2018-12-23T18:44:17.738Z,68.44
2018-12-23T18:46:47.663Z,67.77
2018-12-23T18:49:17.875Z,67.85
2018-12-23T18:51:47.823Z,67.62
2018-12-23T18:54:17.750Z,67.48
2018-12-23T18:56:51.953Z,67.05
2018-12-23T18:59:24.074Z,66.94
2018-12-23T19:02:02.042Z,66.77
2018-12-23T19:04:32.711Z,66.63
2018-12-23T19:07:02.692Z,66.68
2018-12-23T19:09:38.823Z,66.49
2018-12-23T19:12:48.620Z,66.49
2018-12-23T19:15:49.804Z,66.43
2018-12-23T19:19:11.282Z,66.43
2018-12-23T19:22:14.495Z,66.66
2018-12-23T19:25:30.999Z,66.81
2018-12-23T19:28:25.979Z,66.88
2018-12-23T19:31:40.246Z,66.43
2018-12-23T19:34:43.770Z,66.16
2018-12-23T19:37:47.659Z,65.60
2018-12-23T19:41:09.927Z,65.33
2018-12-23T19:44:07.900Z,65.13
2018-12-23T19:47:05.296Z,65.28
2018-12-23T19:49:51.599Z,65.33
2018-12-23T19:53:29.861Z,65.63
2018-12-23T19:56:40.158Z,65.35
2018-12-23T19:59:44.855Z,65.59
2018-12-23T20:02:42.147Z,65.71
2018-12-23T20:06:08.169Z,65.68
2018-12-23T20:09:21.795Z,65.96
2018-12-23T20:12:31.743Z,65.95
2018-12-23T20:15:38.854Z,66.01
2018-12-23T20:18:45.527Z,66.33
2018-12-23T20:21:59.840Z,66.56
2018-12-23T20:25:17.259Z,66.64
2018-12-23T20:28:23.257Z,66.98
2018-12-23T20:31:41.868Z,67.15
2018-12-23T20:35:11.876Z,67.22
2018-12-23T20:38:28.715Z,67.66
2018-12-23T20:41:38.350Z,67.86
2018-12-23T20:44:36.793Z,67.97
2018-12-23T20:47:43.115Z,68.20
2018-12-23T20:50:59.713Z,68.83
2018-12-23T20:54:04.261Z,69.27
2018-12-23T20:57:27.605Z,70.51
2018-12-23T21:00:29.423Z,71.67
2018-12-23T21:03:47.285Z,72.25
2018-12-23T21:06:48.601Z,72.36
2018-12-23T21:09:50.938Z,72.13
2018-12-23T21:13:01.297Z,72.77
2018-12-23T21:16:14.479Z,73.75
2018-12-23T21:19:25.124Z,74.61
2018-12-23T21:22:41.620Z,74.63
2018-12-23T21:25:48.379Z,74.80
2018-12-23T21:28:56.246Z,75.56
2018-12-23T21:31:57.322Z,75.50
2018-12-23T21:35:14.003Z,75.50
2018-12-23T21:38:15.022Z,75.61
2018-12-23T21:41:31.766Z,76.08
2018-12-23T21:44:39.773Z,75.08
2018-12-23T21:48:02.589Z,73.93
2018-12-23T21:50:55.050Z,73.66
2018-12-23T21:53:37.852Z,73.77
2018-12-23T21:56:47.743Z,73.24
2018-12-23T21:59:43.716Z,73.31
2018-12-23T22:03:01.769Z,73.62
2018-12-23T22:06:09.605Z,73.26
2018-12-23T22:09:14.806Z,72.95
2018-12-23T22:12:24.720Z,73.43
2018-12-23T22:14:54.640Z,73.74
2018-12-23T22:17:24.477Z,73.23
2018-12-23T22:19:54.572Z,73.28
2018-12-23T22:22:24.473Z,73.68
2018-12-23T22:24:54.403Z,74.08
2018-12-23T22:27:24.255Z,74.51
2018-12-23T22:29:54.067Z,73.81
2018-12-23T22:32:24.001Z,73.76
2018-12-23T22:34:54.245Z,74.33
2018-12-23T22:37:24.081Z,75.12
2018-12-23T22:39:53.917Z,75.97
2018-12-23T22:42:23.882Z,75.01
2018-12-23T22:44:53.809Z,74.79
2018-12-23T22:47:23.638Z,72.97
2018-12-23T22:49:53.500Z,74.51
2018-12-23T22:52:23.408Z,75.81
2018-12-23T22:54:53.237Z,75.13
2018-12-23T22:57:24.400Z,73.52
2018-12-23T22:59:54.349Z,72.89
2018-12-23T23:02:24.179Z,72.96
2018-12-23T23:04:54.212Z,74.11
2018-12-23T23:07:24.160Z,74.18
2018-12-23T23:09:54.156Z,74.12
2018-12-23T23:12:24.306Z,74.40
2018-12-23T23:14:54.199Z,73.98
2018-12-23T23:17:24.133Z,74.70
2018-12-23T23:19:54.121Z,75.60
2018-12-23T23:22:23.962Z,75.87
2018-12-23T23:24:53.806Z,75.75
2018-12-23T23:27:24.024Z,76.87
2018-12-23T23:29:53.965Z,78.16
2018-12-23T23:32:23.813Z,78.98
2018-12-23T23:34:53.829Z,78.91
2018-12-23T23:37:23.732Z,79.14
2018-12-23T23:39:53.664Z,79.35
2018-12-23T23:42:23.811Z,80.18
2018-12-23T23:44:53.656Z,80.35
2018-12-23T23:47:23.568Z,80.75
2018-12-23T23:49:53.666Z,81.26
2018-12-23T23:52:23.506Z,81.71
2018-12-23T23:54:53.341Z,82.70
2018-12-23T23:57:23.600Z,83.67
2018-12-23T23:59:55.245Z,84.75
